sensor_id;sensor_type;location;lat;lon;timestamp;P1;durP1;ratioP1;P2;durP2;ratioP2
11151;SDS011;5630;49.342;10.802;2022-08-06T00:00:19;5.23;;;3.97;;
11151;SDS011;5630;49.342;10.802;2022-08-06T00:02:44;5.53;;;3.70;;
11151;SDS011;5630;49.342;10.802;2022-08-06T00:05:10;5.23;;;3.53;;
11151;SDS011;5630;49.342;10.802;2022-08-06T00:07:36;5.37;;;3.53;;
11151;SDS011;5630;49.342;10.802;2022-08-06T00:10:02;4.93;;;3.60;;
11151;SDS011;5630;49.342;10.802;2022-08-06T00:12:29;6.70;;;3.80;;
11151;SDS011;5630;49.342;10.802;2022-08-06T00:14:56;7.97;;;3.50;;
11151;SDS011;5630;49.342;10.802;2022-08-06T00:17:22;6.57;;;3.60;;
11151;SDS011;5630;49.342;10.802;2022-08-06T00:19:48;5.53;;;3.60;;
11151;SDS011;5630;49.342;10.802;2022-08-06T00:22:14;5.30;;;3.50;;
11151;SDS011;5630;49.342;10.802;2022-08-06T00:24:39;4.83;;;3.63;;
11151;SDS011;5630;49.342;10.802;2022-08-06T00:27:05;4.30;;;3.50;;
11151;SDS011;5630;49.342;10.802;2022-08-06T00:29:30;8.73;;;3.73;;
11151;SDS011;5630;49.342;10.802;2022-08-06T00:31:56;6.97;;;3.50;;
11151;SDS011;5630;49.342;10.802;2022-08-06T00:34:21;8.03;;;3.60;;
11151;SDS011;5630;49.342;10.802;2022-08-06T00:36:47;6.23;;;3.83;;
11151;SDS011;5630;49.342;10.802;2022-08-06T00:39:12;4.87;;;3.37;;
11151;SDS011;5630;49.342;10.802;2022-08-06T00:41:38;7.53;;;3.60;;
11151;SDS011;5630;49.342;10.802;2022-08-06T00:44:04;4.63;;;3.57;;
11151;SDS011;5630;49.342;10.802;2022-08-06T00:46:30;4.10;;;3.27;;
11151;SDS011;5630;49.342;10.802;2022-08-06T00:48:55;5.17;;;3.50;;
11151;SDS011;5630;49.342;10.802;2022-08-06T00:51:21;3.93;;;3.20;;
11151;SDS011;5630;49.342;10.802;2022-08-06T00:53:48;4.47;;;3.33;;
11151;SDS011;5630;49.342;10.802;2022-08-06T00:56:14;4.67;;;3.37;;
11151;SDS011;5630;49.342;10.802;2022-08-06T00:58:40;5.10;;;3.27;;
11151;SDS011;5630;49.342;10.802;2022-08-06T01:01:06;4.83;;;3.17;;
11151;SDS011;5630;49.342;10.802;2022-08-06T01:03:36;4.27;;;3.40;;
11151;SDS011;5630;49.342;10.802;2022-08-06T01:06:02;4.87;;;3.40;;
11151;SDS011;5630;49.342;10.802;2022-08-06T01:08:28;3.90;;;3.07;;
11151;SDS011;5630;49.342;10.802;2022-08-06T01:10:54;4.13;;;3.23;;
11151;SDS011;5630;49.342;10.802;2022-08-06T01:13:19;5.33;;;3.43;;
11151;SDS011;5630;49.342;10.802;2022-08-06T01:15:47;4.70;;;3.03;;
11151;SDS011;5630;49.342;10.802;2022-08-06T01:18:59;6.37;;;3.60;;
11151;SDS011;5630;49.342;10.802;2022-08-06T01:26:51;5.27;;;3.47;;
11151;SDS011;5630;49.342;10.802;2022-08-06T01:29:33;4.43;;;3.00;;
11151;SDS011;5630;49.342;10.802;2022-08-06T01:32:12;5.83;;;3.20;;
11151;SDS011;5630;49.342;10.802;2022-08-06T01:34:41;6.20;;;3.30;;
11151;SDS011;5630;49.342;10.802;2022-08-06T01:39:52;4.40;;;3.37;;
11151;SDS011;5630;49.342;10.802;2022-08-06T01:42:25;4.80;;;2.90;;
11151;SDS011;5630;49.342;10.802;2022-08-06T01:44:54;5.20;;;2.83;;
11151;SDS011;5630;49.342;10.802;2022-08-06T01:47:26;3.70;;;2.70;;
11151;SDS011;5630;49.342;10.802;2022-08-06T01:49:55;3.87;;;2.70;;
11151;SDS011;5630;49.342;10.802;2022-08-06T01:52:24;4.70;;;2.43;;
11151;SDS011;5630;49.342;10.802;2022-08-06T01:54:51;5.50;;;2.50;;
11151;SDS011;5630;49.342;10.802;2022-08-06T01:57:20;5.23;;;2.80;;
11151;SDS011;5630;49.342;10.802;2022-08-06T01:59:48;5.37;;;3.20;;
11151;SDS011;5630;49.342;10.802;2022-08-06T02:02:18;3.90;;;2.87;;
11151;SDS011;5630;49.342;10.802;2022-08-06T02:04:48;3.97;;;2.67;;
11151;SDS011;5630;49.342;10.802;2022-08-06T02:07:17;3.50;;;2.73;;
11151;SDS011;5630;49.342;10.802;2022-08-06T02:09:45;4.27;;;2.73;;
11151;SDS011;5630;49.342;10.802;2022-08-06T02:12:19;7.07;;;2.57;;
11151;SDS011;5630;49.342;10.802;2022-08-06T02:14:52;10.47;;;3.00;;
11151;SDS011;5630;49.342;10.802;2022-08-06T02:17:30;6.03;;;3.10;;
11151;SDS011;5630;49.342;10.802;2022-08-06T02:19:58;5.53;;;2.77;;
11151;SDS011;5630;49.342;10.802;2022-08-06T02:22:28;3.43;;;2.70;;
11151;SDS011;5630;49.342;10.802;2022-08-06T02:24:57;4.97;;;2.87;;
11151;SDS011;5630;49.342;10.802;2022-08-06T02:27:27;3.43;;;2.73;;
11151;SDS011;5630;49.342;10.802;2022-08-06T02:29:54;5.40;;;2.90;;
11151;SDS011;5630;49.342;10.802;2022-08-06T02:32:23;4.90;;;3.20;;
11151;SDS011;5630;49.342;10.802;2022-08-06T02:34:48;6.53;;;2.70;;
11151;SDS011;5630;49.342;10.802;2022-08-06T02:37:18;5.40;;;2.67;;
11151;SDS011;5630;49.342;10.802;2022-08-06T02:39:56;5.73;;;3.10;;
11151;SDS011;5630;49.342;10.802;2022-08-06T02:50:24;4.80;;;2.87;;
11151;SDS011;5630;49.342;10.802;2022-08-06T02:53:16;3.83;;;2.97;;
11151;SDS011;5630;49.342;10.802;2022-08-06T02:55:47;6.77;;;2.90;;
11151;SDS011;5630;49.342;10.802;2022-08-06T02:58:28;4.80;;;3.03;;
11151;SDS011;5630;49.342;10.802;2022-08-06T03:01:00;4.30;;;3.17;;
11151;SDS011;5630;49.342;10.802;2022-08-06T03:03:31;6.50;;;3.13;;
11151;SDS011;5630;49.342;10.802;2022-08-06T03:05:58;7.60;;;3.07;;
11151;SDS011;5630;49.342;10.802;2022-08-06T03:08:27;4.50;;;2.80;;
11151;SDS011;5630;49.342;10.802;2022-08-06T03:10:55;2.63;;;2.43;;
11151;SDS011;5630;49.342;10.802;2022-08-06T03:13:23;5.77;;;3.03;;
11151;SDS011;5630;49.342;10.802;2022-08-06T03:15:50;3.90;;;2.90;;
11151;SDS011;5630;49.342;10.802;2022-08-06T03:18:18;5.10;;;2.97;;
11151;SDS011;5630;49.342;10.802;2022-08-06T03:20:45;3.97;;;2.77;;
11151;SDS011;5630;49.342;10.802;2022-08-06T03:23:11;4.40;;;3.17;;
11151;SDS011;5630;49.342;10.802;2022-08-06T03:25:38;4.97;;;2.77;;
11151;SDS011;5630;49.342;10.802;2022-08-06T03:28:05;4.57;;;3.07;;
11151;SDS011;5630;49.342;10.802;2022-08-06T03:30:32;3.20;;;2.80;;
11151;SDS011;5630;49.342;10.802;2022-08-06T03:33:01;6.30;;;3.07;;
11151;SDS011;5630;49.342;10.802;2022-08-06T03:35:29;4.33;;;2.60;;
11151;SDS011;5630;49.342;10.802;2022-08-06T03:37:57;4.97;;;2.80;;
11151;SDS011;5630;49.342;10.802;2022-08-06T03:40:23;5.10;;;3.30;;
11151;SDS011;5630;49.342;10.802;2022-08-06T03:42:50;4.23;;;2.80;;
11151;SDS011;5630;49.342;10.802;2022-08-06T03:45:17;3.57;;;2.87;;
11151;SDS011;5630;49.342;10.802;2022-08-06T03:47:44;3.53;;;3.00;;
11151;SDS011;5630;49.342;10.802;2022-08-06T03:50:18;6.27;;;2.87;;
11151;SDS011;5630;49.342;10.802;2022-08-06T03:52:48;5.57;;;3.13;;
11151;SDS011;5630;49.342;10.802;2022-08-06T03:55:20;6.30;;;3.30;;
11151;SDS011;5630;49.342;10.802;2022-08-06T03:57:48;4.63;;;2.97;;
11151;SDS011;5630;49.342;10.802;2022-08-06T04:00:17;4.93;;;2.70;;
11151;SDS011;5630;49.342;10.802;2022-08-06T04:02:48;4.20;;;2.80;;
11151;SDS011;5630;49.342;10.802;2022-08-06T04:05:17;2.73;;;2.50;;
11151;SDS011;5630;49.342;10.802;2022-08-06T04:07:44;3.40;;;2.80;;
11151;SDS011;5630;49.342;10.802;2022-08-06T04:10:30;3.97;;;2.90;;
11151;SDS011;5630;49.342;10.802;2022-08-06T04:12:58;3.90;;;2.57;;
11151;SDS011;5630;49.342;10.802;2022-08-06T04:15:24;4.27;;;2.67;;
11151;SDS011;5630;49.342;10.802;2022-08-06T04:17:50;5.63;;;2.83;;
11151;SDS011;5630;49.342;10.802;2022-08-06T04:20:18;6.00;;;2.80;;
11151;SDS011;5630;49.342;10.802;2022-08-06T04:22:47;2.73;;;2.40;;
11151;SDS011;5630;49.342;10.802;2022-08-06T04:25:13;7.83;;;2.67;;
11151;SDS011;5630;49.342;10.802;2022-08-06T04:27:39;3.07;;;2.80;;
11151;SDS011;5630;49.342;10.802;2022-08-06T04:30:06;4.20;;;2.70;;
11151;SDS011;5630;49.342;10.802;2022-08-06T04:32:33;5.67;;;2.90;;
11151;SDS011;5630;49.342;10.802;2022-08-06T04:35:02;3.20;;;2.70;;
11151;SDS011;5630;49.342;10.802;2022-08-06T04:37:30;5.27;;;2.70;;
11151;SDS011;5630;49.342;10.802;2022-08-06T04:39:56;5.43;;;2.60;;
11151;SDS011;5630;49.342;10.802;2022-08-06T04:42:22;8.10;;;3.47;;
11151;SDS011;5630;49.342;10.802;2022-08-06T04:44:48;3.77;;;2.60;;
11151;SDS011;5630;49.342;10.802;2022-08-06T04:47:15;5.00;;;2.90;;
11151;SDS011;5630;49.342;10.802;2022-08-06T04:49:41;7.23;;;3.00;;
11151;SDS011;5630;49.342;10.802;2022-08-06T04:52:06;3.00;;;2.60;;
11151;SDS011;5630;49.342;10.802;2022-08-06T04:54:32;3.37;;;2.73;;
11151;SDS011;5630;49.342;10.802;2022-08-06T04:56:58;3.10;;;2.43;;
11151;SDS011;5630;49.342;10.802;2022-08-06T04:59:23;3.53;;;2.50;;
11151;SDS011;5630;49.342;10.802;2022-08-06T05:01:49;3.57;;;2.57;;
11151;SDS011;5630;49.342;10.802;2022-08-06T05:04:15;6.03;;;3.07;;
11151;SDS011;5630;49.342;10.802;2022-08-06T05:09:25;5.33;;;2.40;;
11151;SDS011;5630;49.342;10.802;2022-08-06T05:11:52;4.37;;;2.43;;
11151;SDS011;5630;49.342;10.802;2022-08-06T05:14:25;4.37;;;2.70;;
11151;SDS011;5630;49.342;10.802;2022-08-06T05:17:06;2.77;;;2.20;;
11151;SDS011;5630;49.342;10.802;2022-08-06T05:19:38;3.10;;;2.30;;
11151;SDS011;5630;49.342;10.802;2022-08-06T05:22:08;7.47;;;2.77;;
11151;SDS011;5630;49.342;10.802;2022-08-06T05:24:35;3.63;;;2.40;;
11151;SDS011;5630;49.342;10.802;2022-08-06T05:27:02;6.03;;;2.67;;
11151;SDS011;5630;49.342;10.802;2022-08-06T05:29:28;4.13;;;2.70;;
11151;SDS011;5630;49.342;10.802;2022-08-06T05:31:58;5.47;;;2.43;;
11151;SDS011;5630;49.342;10.802;2022-08-06T05:34:24;3.40;;;2.40;;
11151;SDS011;5630;49.342;10.802;2022-08-06T05:36:50;5.93;;;2.40;;
11151;SDS011;5630;49.342;10.802;2022-08-06T05:39:16;5.60;;;2.77;;
11151;SDS011;5630;49.342;10.802;2022-08-06T05:41:41;4.30;;;2.30;;
11151;SDS011;5630;49.342;10.802;2022-08-06T05:44:08;9.43;;;8.40;;
11151;SDS011;5630;49.342;10.802;2022-08-06T05:46:38;6.63;;;4.20;;
11151;SDS011;5630;49.342;10.802;2022-08-06T05:49:19;4.90;;;3.87;;
11151;SDS011;5630;49.342;10.802;2022-08-06T05:57:12;4.33;;;2.73;;
11151;SDS011;5630;49.342;10.802;2022-08-06T05:59:45;2.87;;;2.37;;
11151;SDS011;5630;49.342;10.802;2022-08-06T06:02:15;4.20;;;2.57;;
11151;SDS011;5630;49.342;10.802;2022-08-06T06:04:43;2.57;;;1.97;;
11151;SDS011;5630;49.342;10.802;2022-08-06T06:07:11;7.40;;;2.30;;
11151;SDS011;5630;49.342;10.802;2022-08-06T06:09:38;2.13;;;1.90;;
11151;SDS011;5630;49.342;10.802;2022-08-06T06:12:05;4.30;;;1.70;;
11151;SDS011;5630;49.342;10.802;2022-08-06T06:14:39;2.37;;;1.60;;
11151;SDS011;5630;49.342;10.802;2022-08-06T06:19:38;2.03;;;1.40;;
11151;SDS011;5630;49.342;10.802;2022-08-06T06:22:34;1.70;;;1.50;;
11151;SDS011;5630;49.342;10.802;2022-08-06T06:25:12;2.57;;;1.70;;
11151;SDS011;5630;49.342;10.802;2022-08-06T06:27:46;2.10;;;1.70;;
11151;SDS011;5630;49.342;10.802;2022-08-06T06:30:36;2.60;;;1.67;;
11151;SDS011;5630;49.342;10.802;2022-08-06T06:33:21;1.77;;;1.37;;
11151;SDS011;5630;49.342;10.802;2022-08-06T06:35:50;3.17;;;1.60;;
11151;SDS011;5630;49.342;10.802;2022-08-06T06:41:10;1.97;;;1.40;;
11151;SDS011;5630;49.342;10.802;2022-08-06T06:43:50;2.20;;;1.30;;
11151;SDS011;5630;49.342;10.802;2022-08-06T06:46:31;2.03;;;1.40;;
11151;SDS011;5630;49.342;10.802;2022-08-06T06:49:27;4.03;;;1.60;;
11151;SDS011;5630;49.342;10.802;2022-08-06T06:52:12;1.63;;;1.30;;
11151;SDS011;5630;49.342;10.802;2022-08-06T06:54:43;3.00;;;1.37;;
11151;SDS011;5630;49.342;10.802;2022-08-06T06:57:15;3.33;;;1.17;;
11151;SDS011;5630;49.342;10.802;2022-08-06T06:59:45;2.00;;;1.30;;
11151;SDS011;5630;49.342;10.802;2022-08-06T07:02:19;3.07;;;1.20;;
11151;SDS011;5630;49.342;10.802;2022-08-06T07:04:51;2.40;;;1.30;;
11151;SDS011;5630;49.342;10.802;2022-08-06T07:07:19;3.53;;;1.20;;
11151;SDS011;5630;49.342;10.802;2022-08-06T07:09:46;2.50;;;1.30;;
11151;SDS011;5630;49.342;10.802;2022-08-06T07:12:14;3.47;;;1.37;;
11151;SDS011;5630;49.342;10.802;2022-08-06T07:14:43;2.00;;;1.13;;
11151;SDS011;5630;49.342;10.802;2022-08-06T07:17:10;2.50;;;1.27;;
11151;SDS011;5630;49.342;10.802;2022-08-06T07:19:37;2.23;;;1.17;;
11151;SDS011;5630;49.342;10.802;2022-08-06T07:22:03;4.50;;;1.27;;
11151;SDS011;5630;49.342;10.802;2022-08-06T07:24:31;3.17;;;1.20;;
11151;SDS011;5630;49.342;10.802;2022-08-06T07:27:00;1.90;;;1.00;;
11151;SDS011;5630;49.342;10.802;2022-08-06T07:29:27;3.80;;;1.10;;
11151;SDS011;5630;49.342;10.802;2022-08-06T07:31:55;3.40;;;1.20;;
11151;SDS011;5630;49.342;10.802;2022-08-06T07:34:23;2.33;;;1.03;;
11151;SDS011;5630;49.342;10.802;2022-08-06T07:36:51;1.43;;;1.00;;
11151;SDS011;5630;49.342;10.802;2022-08-06T07:39:26;4.00;;;1.30;;
11151;SDS011;5630;49.342;10.802;2022-08-06T07:41:54;2.50;;;1.10;;
11151;SDS011;5630;49.342;10.802;2022-08-06T07:44:23;3.20;;;1.40;;
11151;SDS011;5630;49.342;10.802;2022-08-06T07:46:53;4.03;;;1.20;;
11151;SDS011;5630;49.342;10.802;2022-08-06T07:49:23;2.70;;;1.23;;
11151;SDS011;5630;49.342;10.802;2022-08-06T07:51:55;1.93;;;1.10;;
11151;SDS011;5630;49.342;10.802;2022-08-06T07:54:22;3.80;;;1.30;;
11151;SDS011;5630;49.342;10.802;2022-08-06T07:56:50;1.63;;;1.00;;
11151;SDS011;5630;49.342;10.802;2022-08-06T07:59:16;3.00;;;1.33;;
11151;SDS011;5630;49.342;10.802;2022-08-06T08:01:43;1.63;;;1.13;;
11151;SDS011;5630;49.342;10.802;2022-08-06T08:04:09;2.10;;;1.10;;
11151;SDS011;5630;49.342;10.802;2022-08-06T08:06:54;3.97;;;0.93;;
11151;SDS011;5630;49.342;10.802;2022-08-06T08:09:23;3.17;;;1.40;;
11151;SDS011;5630;49.342;10.802;2022-08-06T08:11:49;3.13;;;0.90;;
11151;SDS011;5630;49.342;10.802;2022-08-06T08:14:16;2.73;;;1.30;;
11151;SDS011;5630;49.342;10.802;2022-08-06T08:16:45;3.37;;;1.20;;
11151;SDS011;5630;49.342;10.802;2022-08-06T08:21:59;3.10;;;1.23;;
11151;SDS011;5630;49.342;10.802;2022-08-06T08:24:28;4.53;;;1.10;;
11151;SDS011;5630;49.342;10.802;2022-08-06T08:26:56;4.07;;;1.30;;
11151;SDS011;5630;49.342;10.802;2022-08-06T08:29:22;4.73;;;1.10;;
11151;SDS011;5630;49.342;10.802;2022-08-06T08:31:47;1.73;;;0.90;;
11151;SDS011;5630;49.342;10.802;2022-08-06T08:34:13;3.43;;;1.10;;
11151;SDS011;5630;49.342;10.802;2022-08-06T08:36:39;4.37;;;1.00;;
11151;SDS011;5630;49.342;10.802;2022-08-06T08:39:05;2.97;;;1.03;;
11151;SDS011;5630;49.342;10.802;2022-08-06T08:41:32;2.27;;;1.00;;
11151;SDS011;5630;49.342;10.802;2022-08-06T08:44:02;3.63;;;1.00;;
11151;SDS011;5630;49.342;10.802;2022-08-06T08:46:34;5.03;;;1.37;;
11151;SDS011;5630;49.342;10.802;2022-08-06T08:49:06;3.80;;;1.17;;
11151;SDS011;5630;49.342;10.802;2022-08-06T08:51:34;3.50;;;1.20;;
11151;SDS011;5630;49.342;10.802;2022-08-06T08:54:00;5.40;;;1.13;;
11151;SDS011;5630;49.342;10.802;2022-08-06T08:56:27;2.60;;;1.00;;
11151;SDS011;5630;49.342;10.802;2022-08-06T08:58:53;4.73;;;1.20;;
11151;SDS011;5630;49.342;10.802;2022-08-06T09:01:19;3.07;;;1.20;;
11151;SDS011;5630;49.342;10.802;2022-08-06T09:03:45;2.30;;;1.03;;
11151;SDS011;5630;49.342;10.802;2022-08-06T09:06:11;6.27;;;1.43;;
11151;SDS011;5630;49.342;10.802;2022-08-06T09:08:37;2.10;;;1.03;;
11151;SDS011;5630;49.342;10.802;2022-08-06T09:11:04;2.33;;;1.07;;
11151;SDS011;5630;49.342;10.802;2022-08-06T09:13:30;3.67;;;0.97;;
11151;SDS011;5630;49.342;10.802;2022-08-06T09:15:56;1.43;;;1.00;;
11151;SDS011;5630;49.342;10.802;2022-08-06T09:18:23;2.00;;;1.00;;
11151;SDS011;5630;49.342;10.802;2022-08-06T09:20:50;5.20;;;1.20;;
11151;SDS011;5630;49.342;10.802;2022-08-06T09:23:16;2.73;;;1.47;;
11151;SDS011;5630;49.342;10.802;2022-08-06T09:25:43;3.00;;;0.97;;
11151;SDS011;5630;49.342;10.802;2022-08-06T09:28:26;4.30;;;1.07;;
11151;SDS011;5630;49.342;10.802;2022-08-06T09:31:03;3.60;;;1.30;;
11151;SDS011;5630;49.342;10.802;2022-08-06T09:33:30;3.00;;;1.10;;
11151;SDS011;5630;49.342;10.802;2022-08-06T09:35:58;2.77;;;1.03;;
11151;SDS011;5630;49.342;10.802;2022-08-06T09:38:25;2.03;;;1.30;;
11151;SDS011;5630;49.342;10.802;2022-08-06T09:41:10;2.00;;;1.10;;
11151;SDS011;5630;49.342;10.802;2022-08-06T09:43:37;3.67;;;1.10;;
11151;SDS011;5630;49.342;10.802;2022-08-06T09:46:04;3.43;;;1.17;;
11151;SDS011;5630;49.342;10.802;2022-08-06T09:48:30;3.03;;;1.27;;
11151;SDS011;5630;49.342;10.802;2022-08-06T09:50:56;3.50;;;1.17;;
11151;SDS011;5630;49.342;10.802;2022-08-06T09:53:22;3.23;;;1.13;;
11151;SDS011;5630;49.342;10.802;2022-08-06T09:55:53;2.10;;;1.00;;
11151;SDS011;5630;49.342;10.802;2022-08-06T09:58:26;1.77;;;1.10;;
11151;SDS011;5630;49.342;10.802;2022-08-06T10:00:52;3.80;;;1.10;;
11151;SDS011;5630;49.342;10.802;2022-08-06T10:03:18;2.37;;;1.00;;
11151;SDS011;5630;49.342;10.802;2022-08-06T10:05:44;2.50;;;1.10;;
11151;SDS011;5630;49.342;10.802;2022-08-06T10:08:10;2.40;;;0.87;;
11151;SDS011;5630;49.342;10.802;2022-08-06T10:13:12;2.87;;;1.10;;
11151;SDS011;5630;49.342;10.802;2022-08-06T10:15:42;1.50;;;1.00;;
11151;SDS011;5630;49.342;10.802;2022-08-06T10:21:07;3.60;;;1.00;;
11151;SDS011;5630;49.342;10.802;2022-08-06T10:23:35;2.00;;;1.00;;
11151;SDS011;5630;49.342;10.802;2022-08-06T10:26:03;3.67;;;1.10;;
11151;SDS011;5630;49.342;10.802;2022-08-06T10:28:31;2.80;;;1.07;;
11151;SDS011;5630;49.342;10.802;2022-08-06T10:31:00;1.63;;;1.17;;
11151;SDS011;5630;49.342;10.802;2022-08-06T10:33:32;2.70;;;1.20;;
11151;SDS011;5630;49.342;10.802;2022-08-06T10:36:14;3.23;;;1.17;;
11151;SDS011;5630;49.342;10.802;2022-08-06T10:38:44;2.23;;;1.10;;
11151;SDS011;5630;49.342;10.802;2022-08-06T10:41:12;1.73;;;0.97;;
11151;SDS011;5630;49.342;10.802;2022-08-06T10:43:39;3.37;;;1.20;;
11151;SDS011;5630;49.342;10.802;2022-08-06T10:46:06;6.77;;;1.17;;
11151;SDS011;5630;49.342;10.802;2022-08-06T10:48:34;2.63;;;1.30;;
11151;SDS011;5630;49.342;10.802;2022-08-06T10:51:02;2.33;;;1.20;;
11151;SDS011;5630;49.342;10.802;2022-08-06T10:53:30;4.53;;;1.13;;
11151;SDS011;5630;49.342;10.802;2022-08-06T10:55:57;4.43;;;1.00;;
11151;SDS011;5630;49.342;10.802;2022-08-06T10:58:27;2.03;;;1.00;;
11151;SDS011;5630;49.342;10.802;2022-08-06T11:00:54;3.60;;;1.30;;
11151;SDS011;5630;49.342;10.802;2022-08-06T11:06:30;3.20;;;1.10;;
11151;SDS011;5630;49.342;10.802;2022-08-06T11:09:15;4.63;;;1.20;;
11151;SDS011;5630;49.342;10.802;2022-08-06T11:12:33;5.30;;;1.30;;
11151;SDS011;5630;49.342;10.802;2022-08-06T11:14:58;3.83;;;1.10;;
11151;SDS011;5630;49.342;10.802;2022-08-06T11:17:25;1.77;;;1.07;;
11151;SDS011;5630;49.342;10.802;2022-08-06T11:20:05;5.77;;;0.90;;
11151;SDS011;5630;49.342;10.802;2022-08-06T11:22:35;5.43;;;1.50;;
11151;SDS011;5630;49.342;10.802;2022-08-06T11:25:06;2.37;;;1.30;;
11151;SDS011;5630;49.342;10.802;2022-08-06T11:30:35;3.90;;;1.20;;
11151;SDS011;5630;49.342;10.802;2022-08-06T11:33:04;2.50;;;1.17;;
11151;SDS011;5630;49.342;10.802;2022-08-06T11:37:59;2.33;;;1.20;;
11151;SDS011;5630;49.342;10.802;2022-08-06T11:46:23;3.73;;;1.30;;
11151;SDS011;5630;49.342;10.802;2022-08-06T11:57:35;4.10;;;1.30;;
11151;SDS011;5630;49.342;10.802;2022-08-06T12:00:05;2.83;;;0.90;;
11151;SDS011;5630;49.342;10.802;2022-08-06T12:07:38;6.60;;;1.30;;
11151;SDS011;5630;49.342;10.802;2022-08-06T12:12:49;2.63;;;1.00;;
11151;SDS011;5630;49.342;10.802;2022-08-06T12:20:33;2.37;;;1.10;;
11151;SDS011;5630;49.342;10.802;2022-08-06T12:23:04;1.77;;;1.10;;
11151;SDS011;5630;49.342;10.802;2022-08-06T12:25:31;3.43;;;1.20;;
11151;SDS011;5630;49.342;10.802;2022-08-06T12:27:58;1.20;;;1.07;;
11151;SDS011;5630;49.342;10.802;2022-08-06T12:30:24;4.80;;;1.20;;
11151;SDS011;5630;49.342;10.802;2022-08-06T12:32:56;3.87;;;1.07;;
11151;SDS011;5630;49.342;10.802;2022-08-06T12:35:26;2.10;;;1.10;;
11151;SDS011;5630;49.342;10.802;2022-08-06T12:37:52;2.27;;;1.10;;
11151;SDS011;5630;49.342;10.802;2022-08-06T12:40:19;2.87;;;1.10;;
11151;SDS011;5630;49.342;10.802;2022-08-06T12:42:49;1.43;;;0.90;;
11151;SDS011;5630;49.342;10.802;2022-08-06T12:45:19;2.10;;;1.30;;
11151;SDS011;5630;49.342;10.802;2022-08-06T12:47:56;2.67;;;1.10;;
11151;SDS011;5630;49.342;10.802;2022-08-06T12:50:32;3.57;;;1.07;;
11151;SDS011;5630;49.342;10.802;2022-08-06T12:55:30;1.73;;;0.90;;
11151;SDS011;5630;49.342;10.802;2022-08-06T12:57:56;1.57;;;0.80;;
11151;SDS011;5630;49.342;10.802;2022-08-06T13:00:23;2.33;;;1.00;;
11151;SDS011;5630;49.342;10.802;2022-08-06T13:02:49;3.30;;;1.00;;
11151;SDS011;5630;49.342;10.802;2022-08-06T13:05:16;2.27;;;1.10;;
11151;SDS011;5630;49.342;10.802;2022-08-06T13:07:43;4.57;;;1.00;;
11151;SDS011;5630;49.342;10.802;2022-08-06T13:10:10;2.57;;;1.20;;
11151;SDS011;5630;49.342;10.802;2022-08-06T13:12:36;2.00;;;1.10;;
11151;SDS011;5630;49.342;10.802;2022-08-06T13:15:10;1.30;;;1.00;;
11151;SDS011;5630;49.342;10.802;2022-08-06T13:17:40;3.97;;;1.00;;
11151;SDS011;5630;49.342;10.802;2022-08-06T13:20:06;1.80;;;0.80;;
11151;SDS011;5630;49.342;10.802;2022-08-06T13:22:47;1.90;;;1.00;;
11151;SDS011;5630;49.342;10.802;2022-08-06T13:25:14;1.37;;;0.87;;
11151;SDS011;5630;49.342;10.802;2022-08-06T13:27:44;1.27;;;0.70;;
11151;SDS011;5630;49.342;10.802;2022-08-06T13:30:10;1.27;;;0.60;;
11151;SDS011;5630;49.342;10.802;2022-08-06T13:32:36;1.63;;;0.93;;
11151;SDS011;5630;49.342;10.802;2022-08-06T13:35:06;2.90;;;0.77;;
11151;SDS011;5630;49.342;10.802;2022-08-06T13:37:42;3.67;;;0.90;;
11151;SDS011;5630;49.342;10.802;2022-08-06T13:40:11;1.23;;;0.83;;
11151;SDS011;5630;49.342;10.802;2022-08-06T13:42:50;0.90;;;0.70;;
11151;SDS011;5630;49.342;10.802;2022-08-06T13:45:21;1.87;;;0.93;;
11151;SDS011;5630;49.342;10.802;2022-08-06T13:48:00;0.83;;;0.83;;
11151;SDS011;5630;49.342;10.802;2022-08-06T13:50:26;2.27;;;1.00;;
11151;SDS011;5630;49.342;10.802;2022-08-06T13:52:52;1.60;;;0.97;;
11151;SDS011;5630;49.342;10.802;2022-08-06T13:55:24;2.60;;;1.10;;
11151;SDS011;5630;49.342;10.802;2022-08-06T13:57:51;3.40;;;0.90;;
11151;SDS011;5630;49.342;10.802;2022-08-06T14:00:17;2.33;;;1.10;;
11151;SDS011;5630;49.342;10.802;2022-08-06T14:02:43;1.67;;;1.03;;
11151;SDS011;5630;49.342;10.802;2022-08-06T14:05:09;1.47;;;0.80;;
11151;SDS011;5630;49.342;10.802;2022-08-06T14:07:35;2.00;;;1.13;;
11151;SDS011;5630;49.342;10.802;2022-08-06T14:10:01;2.70;;;1.00;;
11151;SDS011;5630;49.342;10.802;2022-08-06T14:12:26;1.90;;;1.03;;
11151;SDS011;5630;49.342;10.802;2022-08-06T14:14:52;3.00;;;1.07;;
11151;SDS011;5630;49.342;10.802;2022-08-06T14:17:18;2.07;;;1.00;;
11151;SDS011;5630;49.342;10.802;2022-08-06T14:19:43;2.90;;;1.00;;
11151;SDS011;5630;49.342;10.802;2022-08-06T14:22:09;2.90;;;1.20;;
11151;SDS011;5630;49.342;10.802;2022-08-06T14:24:35;2.47;;;1.13;;
11151;SDS011;5630;49.342;10.802;2022-08-06T14:27:01;2.90;;;1.00;;
11151;SDS011;5630;49.342;10.802;2022-08-06T14:29:26;2.10;;;0.97;;
11151;SDS011;5630;49.342;10.802;2022-08-06T14:31:52;3.10;;;1.00;;
11151;SDS011;5630;49.342;10.802;2022-08-06T14:34:18;2.73;;;1.17;;
11151;SDS011;5630;49.342;10.802;2022-08-06T14:36:43;3.50;;;1.53;;
11151;SDS011;5630;49.342;10.802;2022-08-06T14:39:09;1.97;;;0.93;;
11151;SDS011;5630;49.342;10.802;2022-08-06T14:41:38;2.23;;;1.90;;
11151;SDS011;5630;49.342;10.802;2022-08-06T14:44:22;2.93;;;1.80;;
11151;SDS011;5630;49.342;10.802;2022-08-06T14:47:06;3.17;;;1.70;;
11151;SDS011;5630;49.342;10.802;2022-08-06T14:49:33;1.87;;;0.90;;
11151;SDS011;5630;49.342;10.802;2022-08-06T14:51:59;2.13;;;1.10;;
11151;SDS011;5630;49.342;10.802;2022-08-06T14:54:25;1.27;;;0.87;;
11151;SDS011;5630;49.342;10.802;2022-08-06T14:56:50;2.00;;;0.93;;
11151;SDS011;5630;49.342;10.802;2022-08-06T14:59:16;1.00;;;0.80;;
11151;SDS011;5630;49.342;10.802;2022-08-06T15:01:45;1.47;;;1.00;;
11151;SDS011;5630;49.342;10.802;2022-08-06T15:04:11;1.20;;;0.90;;
11151;SDS011;5630;49.342;10.802;2022-08-06T15:06:36;3.50;;;0.90;;
11151;SDS011;5630;49.342;10.802;2022-08-06T15:09:02;3.07;;;1.07;;
11151;SDS011;5630;49.342;10.802;2022-08-06T15:11:28;3.13;;;1.07;;
11151;SDS011;5630;49.342;10.802;2022-08-06T15:13:53;1.13;;;0.90;;
11151;SDS011;5630;49.342;10.802;2022-08-06T15:16:19;4.60;;;1.10;;
11151;SDS011;5630;49.342;10.802;2022-08-06T15:18:45;1.13;;;0.80;;
11151;SDS011;5630;49.342;10.802;2022-08-06T15:21:11;1.00;;;0.90;;
11151;SDS011;5630;49.342;10.802;2022-08-06T15:23:36;2.10;;;1.20;;
11151;SDS011;5630;49.342;10.802;2022-08-06T15:26:03;1.67;;;0.90;;
11151;SDS011;5630;49.342;10.802;2022-08-06T15:28:28;1.00;;;0.93;;
11151;SDS011;5630;49.342;10.802;2022-08-06T15:30:54;3.60;;;0.93;;
11151;SDS011;5630;49.342;10.802;2022-08-06T15:33:20;3.13;;;0.90;;
11151;SDS011;5630;49.342;10.802;2022-08-06T15:35:50;1.53;;;0.83;;
11151;SDS011;5630;49.342;10.802;2022-08-06T15:38:15;1.13;;;0.90;;
11151;SDS011;5630;49.342;10.802;2022-08-06T15:40:41;2.63;;;1.00;;
11151;SDS011;5630;49.342;10.802;2022-08-06T15:43:06;1.57;;;1.10;;
11151;SDS011;5630;49.342;10.802;2022-08-06T15:45:32;1.77;;;0.90;;
11151;SDS011;5630;49.342;10.802;2022-08-06T15:47:58;2.10;;;1.00;;
11151;SDS011;5630;49.342;10.802;2022-08-06T15:50:24;1.40;;;1.10;;
11151;SDS011;5630;49.342;10.802;2022-08-06T15:52:50;1.60;;;1.00;;
11151;SDS011;5630;49.342;10.802;2022-08-06T15:55:16;2.40;;;0.87;;
11151;SDS011;5630;49.342;10.802;2022-08-06T15:57:41;1.50;;;1.00;;
11151;SDS011;5630;49.342;10.802;2022-08-06T16:00:08;2.23;;;1.07;;
11151;SDS011;5630;49.342;10.802;2022-08-06T16:02:34;2.20;;;0.90;;
11151;SDS011;5630;49.342;10.802;2022-08-06T16:04:59;0.77;;;0.70;;
11151;SDS011;5630;49.342;10.802;2022-08-06T16:07:25;1.10;;;0.77;;
11151;SDS011;5630;49.342;10.802;2022-08-06T16:09:51;5.20;;;1.03;;
11151;SDS011;5630;49.342;10.802;2022-08-06T16:12:17;1.00;;;0.87;;
11151;SDS011;5630;49.342;10.802;2022-08-06T16:14:43;1.53;;;1.10;;